sensor_id;sensor_type;location;lat;lon;timestamp;P1;durP1;ratioP1;P2;durP2;ratioP2
37973;SDS011;23796;51.458;7.000;2023-02-18T00:00:18;11.88;;;10.75;;
37973;SDS011;23796;51.458;7.000;2023-02-18T00:02:46;12.18;;;10.98;;
37973;SDS011;23796;51.458;7.000;2023-02-18T00:05:18;10.88;;;9.75;;
37973;SDS011;23796;51.458;7.000;2023-02-18T00:07:44;11.50;;;10.27;;
37973;SDS011;23796;51.458;7.000;2023-02-18T00:10:10;10.80;;;9.70;;
37973;SDS011;23796;51.458;7.000;2023-02-18T00:12:39;12.80;;;11.30;;
37973;SDS011;23796;51.458;7.000;2023-02-18T00:15:08;12.18;;;11.07;;
37973;SDS011;23796;51.458;7.000;2023-02-18T00:17:34;13.73;;;11.43;;
37973;SDS011;23796;51.458;7.000;2023-02-18T00:20:00;11.18;;;10.07;;
37973;SDS011;23796;51.458;7.000;2023-02-18T00:22:25;12.02;;;10.77;;
37973;SDS011;23796;51.458;7.000;2023-02-18T00:24:51;11.68;;;10.43;;
37973;SDS011;23796;51.458;7.000;2023-02-18T00:27:17;12.10;;;10.80;;
37973;SDS011;23796;51.458;7.000;2023-02-18T00:29:42;13.32;;;11.88;;
37973;SDS011;23796;51.458;7.000;2023-02-18T00:32:08;13.35;;;11.70;;
37973;SDS011;23796;51.458;7.000;2023-02-18T00:34:38;13.18;;;11.88;;
37973;SDS011;23796;51.458;7.000;2023-02-18T00:37:04;12.52;;;11.27;;
37973;SDS011;23796;51.458;7.000;2023-02-18T00:39:31;14.00;;;11.43;;
37973;SDS011;23796;51.458;7.000;2023-02-18T00:41:57;13.85;;;12.15;;
37973;SDS011;23796;51.458;7.000;2023-02-18T00:44:23;12.57;;;11.07;;
37973;SDS011;23796;51.458;7.000;2023-02-18T00:46:48;12.80;;;11.32;;
37973;SDS011;23796;51.458;7.000;2023-02-18T00:49:14;13.98;;;12.57;;
37973;SDS011;23796;51.458;7.000;2023-02-18T00:51:40;14.07;;;12.75;;
37973;SDS011;23796;51.458;7.000;2023-02-18T00:54:06;15.00;;;13.60;;
37973;SDS011;23796;51.458;7.000;2023-02-18T00:56:32;14.63;;;13.13;;
37973;SDS011;23796;51.458;7.000;2023-02-18T00:58:58;16.08;;;14.50;;
37973;SDS011;23796;51.458;7.000;2023-02-18T01:01:26;15.80;;;14.00;;
37973;SDS011;23796;51.458;7.000;2023-02-18T01:03:52;15.63;;;14.10;;
37973;SDS011;23796;51.458;7.000;2023-02-18T01:06:19;16.40;;;14.80;;
37973;SDS011;23796;51.458;7.000;2023-02-18T01:08:46;16.20;;;14.45;;
37973;SDS011;23796;51.458;7.000;2023-02-18T01:11:12;18.42;;;16.60;;
37973;SDS011;23796;51.458;7.000;2023-02-18T01:13:38;17.35;;;15.55;;
37973;SDS011;23796;51.458;7.000;2023-02-18T01:16:04;17.83;;;16.02;;
37973;SDS011;23796;51.458;7.000;2023-02-18T01:18:33;17.50;;;15.80;;
37973;SDS011;23796;51.458;7.000;2023-02-18T01:20:59;18.75;;;16.80;;
37973;SDS011;23796;51.458;7.000;2023-02-18T01:23:29;17.52;;;15.82;;
37973;SDS011;23796;51.458;7.000;2023-02-18T01:25:56;17.83;;;15.95;;
37973;SDS011;23796;51.458;7.000;2023-02-18T01:28:24;17.85;;;16.15;;
37973;SDS011;23796;51.458;7.000;2023-02-18T01:30:51;18.02;;;14.88;;
37973;SDS011;23796;51.458;7.000;2023-02-18T01:33:19;19.58;;;16.67;;
37973;SDS011;23796;51.458;7.000;2023-02-18T01:35:45;18.95;;;16.77;;
37973;SDS011;23796;51.458;7.000;2023-02-18T01:38:11;18.17;;;16.27;;
37973;SDS011;23796;51.458;7.000;2023-02-18T01:40:43;19.63;;;17.63;;
37973;SDS011;23796;51.458;7.000;2023-02-18T01:43:12;19.85;;;17.83;;
37973;SDS011;23796;51.458;7.000;2023-02-18T01:45:47;19.45;;;17.55;;
37973;SDS011;23796;51.458;7.000;2023-02-18T01:50:52;18.52;;;16.73;;
37973;SDS011;23796;51.458;7.000;2023-02-18T01:53:23;20.58;;;18.48;;
37973;SDS011;23796;51.458;7.000;2023-02-18T01:55:53;19.45;;;17.48;;
37973;SDS011;23796;51.458;7.000;2023-02-18T01:58:19;18.63;;;16.73;;
37973;SDS011;23796;51.458;7.000;2023-02-18T02:00:48;18.70;;;16.92;;
37973;SDS011;23796;51.458;7.000;2023-02-18T02:03:14;18.50;;;16.60;;
37973;SDS011;23796;51.458;7.000;2023-02-18T02:05:39;18.55;;;16.63;;
37973;SDS011;23796;51.458;7.000;2023-02-18T02:08:05;15.18;;;13.57;;
37973;SDS011;23796;51.458;7.000;2023-02-18T02:10:40;16.15;;;14.45;;
37973;SDS011;23796;51.458;7.000;2023-02-18T02:13:16;14.70;;;13.25;;
37973;SDS011;23796;51.458;7.000;2023-02-18T02:19:01;14.00;;;12.60;;
37973;SDS011;23796;51.458;7.000;2023-02-18T02:21:55;13.30;;;12.00;;
37973;SDS011;23796;51.458;7.000;2023-02-18T02:24:38;12.52;;;11.23;;
37973;SDS011;23796;51.458;7.000;2023-02-18T02:27:18;13.15;;;11.80;;
37973;SDS011;23796;51.458;7.000;2023-02-18T02:36:12;12.05;;;10.90;;
37973;SDS011;23796;51.458;7.000;2023-02-18T02:41:47;11.05;;;9.75;;
37973;SDS011;23796;51.458;7.000;2023-02-18T02:44:54;9.95;;;8.88;;
37973;SDS011;23796;51.458;7.000;2023-02-18T02:47:35;10.90;;;9.20;;
37973;SDS011;23796;51.458;7.000;2023-02-18T02:52:50;9.13;;;8.23;;
37973;SDS011;23796;51.458;7.000;2023-02-18T02:55:24;10.60;;;9.60;;
37973;SDS011;23796;51.458;7.000;2023-02-18T02:57:51;11.32;;;10.15;;
37973;SDS011;23796;51.458;7.000;2023-02-18T03:00:22;11.45;;;10.30;;
37973;SDS011;23796;51.458;7.000;2023-02-18T03:03:12;10.45;;;9.35;;
37973;SDS011;23796;51.458;7.000;2023-02-18T03:11:10;11.23;;;10.02;;
37973;SDS011;23796;51.458;7.000;2023-02-18T03:19:22;9.77;;;8.77;;
37973;SDS011;23796;51.458;7.000;2023-02-18T03:22:15;9.45;;;8.43;;
37973;SDS011;23796;51.458;7.000;2023-02-18T03:24:49;9.38;;;8.43;;
37973;SDS011;23796;51.458;7.000;2023-02-18T03:27:24;8.02;;;7.22;;
37973;SDS011;23796;51.458;7.000;2023-02-18T03:29:55;8.23;;;7.40;;
37973;SDS011;23796;51.458;7.000;2023-02-18T03:32:28;8.05;;;7.25;;
37973;SDS011;23796;51.458;7.000;2023-02-18T03:34:59;11.25;;;10.13;;
37973;SDS011;23796;51.458;7.000;2023-02-18T03:37:28;10.48;;;9.10;;
37973;SDS011;23796;51.458;7.000;2023-02-18T03:39:56;9.20;;;8.30;;
37973;SDS011;23796;51.458;7.000;2023-02-18T03:42:27;9.85;;;8.68;;
37973;SDS011;23796;51.458;7.000;2023-02-18T03:44:56;10.02;;;8.65;;
37973;SDS011;23796;51.458;7.000;2023-02-18T03:47:23;10.45;;;9.20;;
37973;SDS011;23796;51.458;7.000;2023-02-18T03:49:49;10.48;;;9.48;;
37973;SDS011;23796;51.458;7.000;2023-02-18T03:52:14;10.50;;;9.13;;
37973;SDS011;23796;51.458;7.000;2023-02-18T03:54:42;10.52;;;9.52;;
37973;SDS011;23796;51.458;7.000;2023-02-18T03:57:10;10.88;;;9.77;;
37973;SDS011;23796;51.458;7.000;2023-02-18T03:59:38;10.15;;;9.00;;
37973;SDS011;23796;51.458;7.000;2023-02-18T04:02:06;10.68;;;8.93;;
37973;SDS011;23796;51.458;7.000;2023-02-18T04:04:31;9.90;;;8.60;;
37973;SDS011;23796;51.458;7.000;2023-02-18T04:06:59;9.88;;;8.82;;
37973;SDS011;23796;51.458;7.000;2023-02-18T04:09:25;10.10;;;9.10;;
37973;SDS011;23796;51.458;7.000;2023-02-18T04:11:50;9.57;;;8.57;;
37973;SDS011;23796;51.458;7.000;2023-02-18T04:14:16;10.32;;;8.40;;
37973;SDS011;23796;51.458;7.000;2023-02-18T04:16:42;9.32;;;8.00;;
37973;SDS011;23796;51.458;7.000;2023-02-18T04:19:07;9.13;;;8.23;;
37973;SDS011;23796;51.458;7.000;2023-02-18T04:21:33;9.68;;;8.77;;
37973;SDS011;23796;51.458;7.000;2023-02-18T04:24:01;9.52;;;8.27;;
37973;SDS011;23796;51.458;7.000;2023-02-18T04:26:26;9.73;;;8.73;;
37973;SDS011;23796;51.458;7.000;2023-02-18T04:28:52;8.90;;;7.95;;
37973;SDS011;23796;51.458;7.000;2023-02-18T04:31:18;8.88;;;7.93;;
37973;SDS011;23796;51.458;7.000;2023-02-18T04:33:46;8.88;;;7.72;;
37973;SDS011;23796;51.458;7.000;2023-02-18T04:36:11;10.13;;;7.75;;
37973;SDS011;23796;51.458;7.000;2023-02-18T04:38:37;8.38;;;7.00;;
37973;SDS011;23796;51.458;7.000;2023-02-18T04:41:03;8.23;;;6.55;;
37973;SDS011;23796;51.458;7.000;2023-02-18T04:43:28;7.50;;;6.43;;
37973;SDS011;23796;51.458;7.000;2023-02-18T04:45:54;7.03;;;6.07;;
37973;SDS011;23796;51.458;7.000;2023-02-18T04:48:24;6.82;;;5.35;;
37973;SDS011;23796;51.458;7.000;2023-02-18T04:50:49;7.28;;;5.63;;
37973;SDS011;23796;51.458;7.000;2023-02-18T04:53:16;8.90;;;5.40;;
37973;SDS011;23796;51.458;7.000;2023-02-18T04:55:49;7.18;;;4.80;;
37973;SDS011;23796;51.458;7.000;2023-02-18T04:58:18;5.60;;;4.00;;
37973;SDS011;23796;51.458;7.000;2023-02-18T05:00:44;4.82;;;3.10;;
37973;SDS011;23796;51.458;7.000;2023-02-18T05:03:10;4.47;;;3.15;;
37973;SDS011;23796;51.458;7.000;2023-02-18T05:05:36;4.25;;;2.40;;
37973;SDS011;23796;51.458;7.000;2023-02-18T05:08:04;4.70;;;1.95;;
37973;SDS011;23796;51.458;7.000;2023-02-18T05:10:32;3.05;;;1.70;;
37973;SDS011;23796;51.458;7.000;2023-02-18T05:13:01;3.30;;;1.90;;
37973;SDS011;23796;51.458;7.000;2023-02-18T05:15:26;3.20;;;1.83;;
37973;SDS011;23796;51.458;7.000;2023-02-18T05:17:54;2.38;;;1.27;;
37973;SDS011;23796;51.458;7.000;2023-02-18T05:20:20;3.20;;;1.50;;
37973;SDS011;23796;51.458;7.000;2023-02-18T05:22:45;2.28;;;1.25;;
37973;SDS011;23796;51.458;7.000;2023-02-18T05:25:11;1.83;;;1.00;;
37973;SDS011;23796;51.458;7.000;2023-02-18T05:27:39;1.63;;;0.85;;
37973;SDS011;23796;51.458;7.000;2023-02-18T05:30:04;3.22;;;1.23;;
37973;SDS011;23796;51.458;7.000;2023-02-18T05:32:33;2.22;;;1.05;;
37973;SDS011;23796;51.458;7.000;2023-02-18T05:35:01;1.52;;;0.77;;
37973;SDS011;23796;51.458;7.000;2023-02-18T05:37:30;2.08;;;0.90;;
37973;SDS011;23796;51.458;7.000;2023-02-18T05:39:55;2.10;;;1.10;;
37973;SDS011;23796;51.458;7.000;2023-02-18T05:42:21;1.70;;;0.90;;
37973;SDS011;23796;51.458;7.000;2023-02-18T05:44:47;1.45;;;0.85;;
37973;SDS011;23796;51.458;7.000;2023-02-18T05:47:13;2.03;;;0.98;;
37973;SDS011;23796;51.458;7.000;2023-02-18T05:49:39;2.00;;;1.00;;
37973;SDS011;23796;51.458;7.000;2023-02-18T05:52:06;3.30;;;1.30;;
37973;SDS011;23796;51.458;7.000;2023-02-18T05:54:35;1.63;;;0.80;;
37973;SDS011;23796;51.458;7.000;2023-02-18T05:57:01;1.73;;;0.95;;
37973;SDS011;23796;51.458;7.000;2023-02-18T05:59:27;1.85;;;1.00;;
37973;SDS011;23796;51.458;7.000;2023-02-18T06:01:53;1.92;;;1.00;;
37973;SDS011;23796;51.458;7.000;2023-02-18T06:04:19;2.17;;;1.20;;
37973;SDS011;23796;51.458;7.000;2023-02-18T06:06:44;2.00;;;1.17;;
37973;SDS011;23796;51.458;7.000;2023-02-18T06:09:13;2.00;;;1.10;;
37973;SDS011;23796;51.458;7.000;2023-02-18T06:11:38;2.35;;;1.00;;
37973;SDS011;23796;51.458;7.000;2023-02-18T06:14:04;2.83;;;1.23;;
37973;SDS011;23796;51.458;7.000;2023-02-18T06:16:32;2.63;;;1.25;;
37973;SDS011;23796;51.458;7.000;2023-02-18T06:18:58;3.30;;;1.10;;
37973;SDS011;23796;51.458;7.000;2023-02-18T06:21:24;3.20;;;1.77;;
37973;SDS011;23796;51.458;7.000;2023-02-18T06:23:50;3.65;;;1.65;;
37973;SDS011;23796;51.458;7.000;2023-02-18T06:26:16;3.17;;;1.88;;
37973;SDS011;23796;51.458;7.000;2023-02-18T06:28:44;2.63;;;1.40;;
37973;SDS011;23796;51.458;7.000;2023-02-18T06:31:10;2.63;;;1.50;;
37973;SDS011;23796;51.458;7.000;2023-02-18T06:33:35;2.50;;;1.35;;
37973;SDS011;23796;51.458;7.000;2023-02-18T06:36:02;3.00;;;1.30;;
37973;SDS011;23796;51.458;7.000;2023-02-18T06:38:35;2.92;;;1.33;;
37973;SDS011;23796;51.458;7.000;2023-02-18T06:41:04;2.60;;;1.38;;
37973;SDS011;23796;51.458;7.000;2023-02-18T06:43:30;2.92;;;1.30;;
37973;SDS011;23796;51.458;7.000;2023-02-18T06:45:58;2.60;;;1.20;;
37973;SDS011;23796;51.458;7.000;2023-02-18T06:48:24;2.70;;;1.50;;
37973;SDS011;23796;51.458;7.000;2023-02-18T06:50:52;3.78;;;1.73;;
37973;SDS011;23796;51.458;7.000;2023-02-18T06:53:20;3.75;;;2.10;;
37973;SDS011;23796;51.458;7.000;2023-02-18T06:55:45;3.75;;;1.88;;
37973;SDS011;23796;51.458;7.000;2023-02-18T06:58:11;3.15;;;1.90;;
37973;SDS011;23796;51.458;7.000;2023-02-18T07:00:41;3.88;;;2.22;;
37973;SDS011;23796;51.458;7.000;2023-02-18T07:03:07;3.50;;;2.38;;
37973;SDS011;23796;51.458;7.000;2023-02-18T07:05:33;3.67;;;2.78;;
37973;SDS011;23796;51.458;7.000;2023-02-18T07:07:58;3.58;;;2.72;;
37973;SDS011;23796;51.458;7.000;2023-02-18T07:10:24;4.13;;;2.97;;
37973;SDS011;23796;51.458;7.000;2023-02-18T07:12:50;5.22;;;3.17;;
37973;SDS011;23796;51.458;7.000;2023-02-18T07:15:15;4.85;;;3.85;;
37973;SDS011;23796;51.458;7.000;2023-02-18T07:17:41;4.20;;;3.05;;
37973;SDS011;23796;51.458;7.000;2023-02-18T07:20:07;3.65;;;2.72;;
37973;SDS011;23796;51.458;7.000;2023-02-18T07:22:33;4.43;;;2.85;;
37973;SDS011;23796;51.458;7.000;2023-02-18T07:24:59;3.92;;;2.67;;
37973;SDS011;23796;51.458;7.000;2023-02-18T07:27:25;4.57;;;2.50;;
37973;SDS011;23796;51.458;7.000;2023-02-18T07:29:50;4.25;;;2.65;;
37973;SDS011;23796;51.458;7.000;2023-02-18T07:32:18;4.43;;;3.10;;
37973;SDS011;23796;51.458;7.000;2023-02-18T07:34:44;3.85;;;2.45;;
37973;SDS011;23796;51.458;7.000;2023-02-18T07:37:10;3.33;;;2.05;;
37973;SDS011;23796;51.458;7.000;2023-02-18T07:39:38;3.17;;;1.90;;
37973;SDS011;23796;51.458;7.000;2023-02-18T07:42:07;3.08;;;1.85;;
37973;SDS011;23796;51.458;7.000;2023-02-18T07:44:36;4.63;;;2.00;;
37973;SDS011;23796;51.458;7.000;2023-02-18T07:47:05;3.10;;;1.77;;
37973;SDS011;23796;51.458;7.000;2023-02-18T07:49:31;4.25;;;1.80;;
37973;SDS011;23796;51.458;7.000;2023-02-18T07:52:00;3.25;;;1.60;;
37973;SDS011;23796;51.458;7.000;2023-02-18T07:54:28;3.78;;;1.67;;
37973;SDS011;23796;51.458;7.000;2023-02-18T07:56:56;3.65;;;1.50;;
37973;SDS011;23796;51.458;7.000;2023-02-18T07:59:22;5.00;;;1.90;;
37973;SDS011;23796;51.458;7.000;2023-02-18T08:01:47;4.45;;;1.90;;
37973;SDS011;23796;51.458;7.000;2023-02-18T08:04:15;4.47;;;1.65;;
37973;SDS011;23796;51.458;7.000;2023-02-18T08:06:42;4.13;;;1.98;;
37973;SDS011;23796;51.458;7.000;2023-02-18T08:09:10;3.58;;;1.85;;
37973;SDS011;23796;51.458;7.000;2023-02-18T08:11:36;3.33;;;1.70;;
37973;SDS011;23796;51.458;7.000;2023-02-18T08:14:02;2.97;;;1.67;;
37973;SDS011;23796;51.458;7.000;2023-02-18T08:16:29;2.95;;;1.65;;
37973;SDS011;23796;51.458;7.000;2023-02-18T08:18:54;3.58;;;1.52;;
37973;SDS011;23796;51.458;7.000;2023-02-18T08:21:21;3.22;;;2.00;;
37973;SDS011;23796;51.458;7.000;2023-02-18T08:23:47;2.83;;;1.60;;
37973;SDS011;23796;51.458;7.000;2023-02-18T08:26:13;2.83;;;1.80;;
37973;SDS011;23796;51.458;7.000;2023-02-18T08:28:40;3.15;;;1.40;;
37973;SDS011;23796;51.458;7.000;2023-02-18T08:31:12;3.17;;;1.42;;
37973;SDS011;23796;51.458;7.000;2023-02-18T08:33:50;2.95;;;1.02;;
37973;SDS011;23796;51.458;7.000;2023-02-18T08:36:17;2.40;;;1.00;;
37973;SDS011;23796;51.458;7.000;2023-02-18T08:38:43;2.78;;;1.30;;
37973;SDS011;23796;51.458;7.000;2023-02-18T08:41:09;2.70;;;1.20;;
37973;SDS011;23796;51.458;7.000;2023-02-18T08:43:38;3.50;;;1.50;;
37973;SDS011;23796;51.458;7.000;2023-02-18T08:46:04;3.60;;;1.77;;
37973;SDS011;23796;51.458;7.000;2023-02-18T08:48:33;3.60;;;1.95;;
37973;SDS011;23796;51.458;7.000;2023-02-18T08:51:09;5.13;;;2.10;;
37973;SDS011;23796;51.458;7.000;2023-02-18T08:53:42;4.82;;;2.67;;
37973;SDS011;23796;51.458;7.000;2023-02-18T08:56:10;4.20;;;2.63;;
37973;SDS011;23796;51.458;7.000;2023-02-18T08:58:37;6.72;;;3.10;;
37973;SDS011;23796;51.458;7.000;2023-02-18T09:01:06;4.25;;;2.85;;
37973;SDS011;23796;51.458;7.000;2023-02-18T09:03:33;9.35;;;3.17;;
37973;SDS011;23796;51.458;7.000;2023-02-18T09:05:59;6.80;;;2.42;;
37973;SDS011;23796;51.458;7.000;2023-02-18T09:08:26;7.15;;;2.50;;
37973;SDS011;23796;51.458;7.000;2023-02-18T09:10:58;4.28;;;1.90;;
37973;SDS011;23796;51.458;7.000;2023-02-18T09:13:26;6.75;;;2.50;;
37973;SDS011;23796;51.458;7.000;2023-02-18T09:15:58;7.63;;;2.75;;
37973;SDS011;23796;51.458;7.000;2023-02-18T09:18:25;6.82;;;2.83;;
37973;SDS011;23796;51.458;7.000;2023-02-18T09:20:54;7.47;;;2.47;;
37973;SDS011;23796;51.458;7.000;2023-02-18T09:23:21;6.97;;;2.33;;
37973;SDS011;23796;51.458;7.000;2023-02-18T09:25:48;6.07;;;2.10;;
37973;SDS011;23796;51.458;7.000;2023-02-18T09:28:16;8.77;;;2.60;;
37973;SDS011;23796;51.458;7.000;2023-02-18T09:30:42;9.20;;;2.00;;
37973;SDS011;23796;51.458;7.000;2023-02-18T09:33:10;6.85;;;2.30;;
37973;SDS011;23796;51.458;7.000;2023-02-18T09:35:40;8.90;;;2.22;;
37973;SDS011;23796;51.458;7.000;2023-02-18T09:38:07;7.07;;;2.28;;
37973;SDS011;23796;51.458;7.000;2023-02-18T09:40:35;8.68;;;2.70;;
37973;SDS011;23796;51.458;7.000;2023-02-18T09:43:03;8.30;;;2.45;;
37973;SDS011;23796;51.458;7.000;2023-02-18T09:45:29;8.20;;;2.90;;
37973;SDS011;23796;51.458;7.000;2023-02-18T09:47:56;8.82;;;3.10;;
37973;SDS011;23796;51.458;7.000;2023-02-18T09:50:23;9.55;;;3.00;;
37973;SDS011;23796;51.458;7.000;2023-02-18T09:52:51;9.52;;;2.90;;
37973;SDS011;23796;51.458;7.000;2023-02-18T10:00:55;9.23;;;2.22;;
37973;SDS011;23796;51.458;7.000;2023-02-18T10:03:23;8.93;;;2.58;;
37973;SDS011;23796;51.458;7.000;2023-02-18T10:06:02;7.72;;;2.00;;
37973;SDS011;23796;51.458;7.000;2023-02-18T10:08:37;11.02;;;3.10;;
37973;SDS011;23796;51.458;7.000;2023-02-18T10:11:15;8.23;;;2.28;;
37973;SDS011;23796;51.458;7.000;2023-02-18T10:13:50;8.43;;;3.03;;
37973;SDS011;23796;51.458;7.000;2023-02-18T10:16:23;7.45;;;2.42;;
37973;SDS011;23796;51.458;7.000;2023-02-18T10:18:58;14.15;;;3.47;;
37973;SDS011;23796;51.458;7.000;2023-02-18T10:21:29;10.43;;;3.13;;
37973;SDS011;23796;51.458;7.000;2023-02-18T10:24:05;6.15;;;2.42;;
37973;SDS011;23796;51.458;7.000;2023-02-18T10:26:51;9.40;;;2.15;;
37973;SDS011;23796;51.458;7.000;2023-02-18T10:29:17;8.02;;;2.38;;
37973;SDS011;23796;51.458;7.000;2023-02-18T10:31:48;9.55;;;2.45;;
37973;SDS011;23796;51.458;7.000;2023-02-18T10:34:41;9.13;;;2.38;;
37973;SDS011;23796;51.458;7.000;2023-02-18T10:40:29;8.98;;;3.25;;
37973;SDS011;23796;51.458;7.000;2023-02-18T10:43:12;9.38;;;2.53;;
37973;SDS011;23796;51.458;7.000;2023-02-18T10:50:47;7.93;;;3.00;;
37973;SDS011;23796;51.458;7.000;2023-02-18T10:56:04;8.00;;;2.22;;
37973;SDS011;23796;51.458;7.000;2023-02-18T11:00:57;9.15;;;2.50;;
37973;SDS011;23796;51.458;7.000;2023-02-18T11:06:14;10.77;;;2.95;;
37973;SDS011;23796;51.458;7.000;2023-02-18T11:08:52;9.27;;;2.60;;
37973;SDS011;23796;51.458;7.000;2023-02-18T11:11:24;7.63;;;2.25;;
37973;SDS011;23796;51.458;7.000;2023-02-18T11:14:01;8.77;;;3.55;;
37973;SDS011;23796;51.458;7.000;2023-02-18T11:16:42;8.38;;;2.60;;
37973;SDS011;23796;51.458;7.000;2023-02-18T11:19:37;9.10;;;3.13;;
37973;SDS011;23796;51.458;7.000;2023-02-18T11:24:47;7.43;;;3.90;;
37973;SDS011;23796;51.458;7.000;2023-02-18T11:29:58;8.50;;;4.95;;
37973;SDS011;23796;51.458;7.000;2023-02-18T11:32:29;8.13;;;5.15;;
37973;SDS011;23796;51.458;7.000;2023-02-18T11:34:58;8.90;;;4.13;;
37973;SDS011;23796;51.458;7.000;2023-02-18T11:37:25;8.38;;;4.10;;
37973;SDS011;23796;51.458;7.000;2023-02-18T11:39:52;6.72;;;4.32;;
37973;SDS011;23796;51.458;7.000;2023-02-18T11:42:22;7.55;;;3.97;;
37973;SDS011;23796;51.458;7.000;2023-02-18T11:47:21;7.03;;;4.00;;
37973;SDS011;23796;51.458;7.000;2023-02-18T11:52:34;7.88;;;3.70;;
37973;SDS011;23796;51.458;7.000;2023-02-18T11:55:21;8.23;;;4.55;;
37973;SDS011;23796;51.458;7.000;2023-02-18T11:58:03;8.27;;;3.78;;
37973;SDS011;23796;51.458;7.000;2023-02-18T12:00:41;5.82;;;3.80;;
37973;SDS011;23796;51.458;7.000;2023-02-18T12:03:57;9.00;;;3.78;;
37973;SDS011;23796;51.458;7.000;2023-02-18T12:06:03;5.35;;;3.53;;
37973;SDS011;23796;51.458;7.000;2023-02-18T12:08:44;6.38;;;3.72;;
37973;SDS011;23796;51.458;7.000;2023-02-18T12:11:38;6.30;;;3.42;;
37973;SDS011;23796;51.458;7.000;2023-02-18T12:14:22;4.95;;;3.08;;
37973;SDS011;23796;51.458;7.000;2023-02-18T12:16:56;4.57;;;3.17;;
37973;SDS011;23796;51.458;7.000;2023-02-18T12:33:14;5.40;;;3.70;;
37973;SDS011;23796;51.458;7.000;2023-02-18T12:36:03;5.47;;;3.60;;
37973;SDS011;23796;51.458;7.000;2023-02-18T12:50:26;4.80;;;3.15;;
37973;SDS011;23796;51.458;7.000;2023-02-18T12:53:34;5.20;;;3.05;;
37973;SDS011;23796;51.458;7.000;2023-02-18T12:55:49;5.55;;;3.42;;
37973;SDS011;23796;51.458;7.000;2023-02-18T13:04:07;6.30;;;4.15;;
37973;SDS011;23796;51.458;7.000;2023-02-18T13:12:20;6.97;;;4.60;;
37973;SDS011;23796;51.458;7.000;2023-02-18T13:15:02;6.40;;;5.00;;
37973;SDS011;23796;51.458;7.000;2023-02-18T13:17:37;6.32;;;5.18;;
37973;SDS011;23796;51.458;7.000;2023-02-18T13:20:12;6.07;;;5.43;;
37973;SDS011;23796;51.458;7.000;2023-02-18T13:22:55;6.70;;;5.60;;
37973;SDS011;23796;51.458;7.000;2023-02-18T13:25:23;6.82;;;5.80;;
37973;SDS011;23796;51.458;7.000;2023-02-18T13:35:57;6.95;;;6.25;;
37973;SDS011;23796;51.458;7.000;2023-02-18T13:38:55;6.72;;;5.60;;
37973;SDS011;23796;51.458;7.000;2023-02-18T13:41:29;6.30;;;5.70;;
37973;SDS011;23796;51.458;7.000;2023-02-18T13:46:44;7.03;;;5.70;;
37973;SDS011;23796;51.458;7.000;2023-02-18T13:49:13;6.68;;;5.68;;
37973;SDS011;23796;51.458;7.000;2023-02-18T13:51:46;7.10;;;6.30;;
37973;SDS011;23796;51.458;7.000;2023-02-18T13:54:25;8.35;;;6.80;;
37973;SDS011;23796;51.458;7.000;2023-02-18T13:57:11;7.88;;;5.95;;
37973;SDS011;23796;51.458;7.000;2023-02-18T14:07:26;9.75;;;7.60;;
37973;SDS011;23796;51.458;7.000;2023-02-18T14:10:00;8.75;;;7.00;;
37973;SDS011;23796;51.458;7.000;2023-02-18T14:17:48;10.90;;;8.60;;
37973;SDS011;23796;51.458;7.000;2023-02-18T14:50:50;9.85;;;7.80;;
37973;SDS011;23796;51.458;7.000;2023-02-18T14:53:18;12.95;;;7.80;;
37973;SDS011;23796;51.458;7.000;2023-02-18T14:55:52;10.10;;;8.60;;
37973;SDS011;23796;51.458;7.000;2023-02-18T15:02:19;12.60;;;10.45;;
37973;SDS011;23796;51.458;7.000;2023-02-18T15:04:52;14.88;;;12.65;;
37973;SDS011;23796;51.458;7.000;2023-02-18T15:07:38;13.10;;;11.70;;
37973;SDS011;23796;51.458;7.000;2023-02-18T15:10:04;14.75;;;12.80;;
37973;SDS011;23796;51.458;7.000;2023-02-18T15:12:54;15.32;;;13.68;;
37973;SDS011;23796;51.458;7.000;2023-02-18T15:15:52;13.95;;;12.65;;
37973;SDS011;23796;51.458;7.000;2023-02-18T15:18:39;14.45;;;12.98;;
37973;SDS011;23796;51.458;7.000;2023-02-18T15:21:07;15.20;;;13.18;;
37973;SDS011;23796;51.458;7.000;2023-02-18T15:23:39;14.25;;;12.85;;
37973;SDS011;23796;51.458;7.000;2023-02-18T15:26:06;14.55;;;13.02;;
37973;SDS011;23796;51.458;7.000;2023-02-18T15:28:38;15.15;;;13.65;;
37973;SDS011;23796;51.458;7.000;2023-02-18T15:31:14;16.75;;;15.10;;
37973;SDS011;23796;51.458;7.000;2023-02-18T15:33:45;14.88;;;13.38;;
37973;SDS011;23796;51.458;7.000;2023-02-18T15:36:12;16.03;;;14.43;;
37973;SDS011;23796;51.458;7.000;2023-02-18T15:38:39;15.00;;;13.25;;
37973;SDS011;23796;51.458;7.000;2023-02-18T15:41:13;15.27;;;11.75;;
37973;SDS011;23796;51.458;7.000;2023-02-18T15:43:55;13.70;;;11.57;;
37973;SDS011;23796;51.458;7.000;2023-02-18T15:46:26;11.50;;;10.38;;
37973;SDS011;23796;51.458;7.000;2023-02-18T15:48:52;10.95;;;9.50;;
37973;SDS011;23796;51.458;7.000;2023-02-18T15:51:25;11.23;;;9.35;;
37973;SDS011;23796;51.458;7.000;2023-02-18T15:53:56;11.80;;;8.88;;
37973;SDS011;23796;51.458;7.000;2023-02-18T16:14:44;11.30;;;7.87;;
37973;SDS011;23796;51.458;7.000;2023-02-18T16:19:50;13.48;;;8.68;;
37973;SDS011;23796;51.458;7.000;2023-02-18T16:22:49;14.05;;;8.23;;
37973;SDS011;23796;51.458;7.000;2023-02-18T16:25:17;11.82;;;8.32;;
37973;SDS011;23796;51.458;7.000;2023-02-18T16:30:42;12.45;;;7.50;;
37973;SDS011;23796;51.458;7.000;2023-02-18T16:33:10;9.43;;;7.65;;
37973;SDS011;23796;51.458;7.000;2023-02-18T16:35:53;9.95;;;7.20;;
37973;SDS011;23796;51.458;7.000;2023-02-18T16:38:24;10.05;;;8.35;;
37973;SDS011;23796;51.458;7.000;2023-02-18T16:40:51;11.18;;;7.70;;
37973;SDS011;23796;51.458;7.000;2023-02-18T16:43:19;9.70;;;7.65;;
37973;SDS011;23796;51.458;7.000;2023-02-18T16:45:49;9.73;;;7.88;;
37973;SDS011;23796;51.458;7.000;2023-02-18T16:52:06;11.40;;;8.43;;
37973;SDS011;23796;51.458;7.000;2023-02-18T16:55:29;9.88;;;7.55;;
37973;SDS011;23796;51.458;7.000;2023-02-18T16:58:18;10.85;;;6.97;;
37973;SDS011;23796;51.458;7.000;2023-02-18T17:00:44;10.48;;;7.35;;
37973;SDS011;23796;51.458;7.000;2023-02-18T17:03:11;8.98;;;7.18;;
37973;SDS011;23796;51.458;7.000;2023-02-18T17:05:37;11.20;;;8.20;;
37973;SDS011;23796;51.458;7.000;2023-02-18T17:10:41;11.50;;;7.10;;
37973;SDS011;23796;51.458;7.000;2023-02-18T17:13:10;11.15;;;7.07;;
37973;SDS011;23796;51.458;7.000;2023-02-18T17:15:44;9.40;;;6.95;;
37973;SDS011;23796;51.458;7.000;2023-02-18T17:18:13;12.60;;;7.25;;
37973;SDS011;23796;51.458;7.000;2023-02-18T17:20:41;11.57;;;7.78;;
37973;SDS011;23796;51.458;7.000;2023-02-18T17:23:08;11.40;;;7.90;;
37973;SDS011;23796;51.458;7.000;2023-02-18T17:25:39;13.98;;;8.48;;
37973;SDS011;23796;51.458;7.000;2023-02-18T17:28:09;13.15;;;8.23;;
37973;SDS011;23796;51.458;7.000;2023-02-18T17:30:36;11.45;;;8.30;;
37973;SDS011;23796;51.458;7.000;2023-02-18T17:33:03;12.50;;;9.30;;
37973;SDS011;23796;51.458;7.000;2023-02-18T17:35:30;8.30;;;7.47;;
37973;SDS011;23796;51.458;7.000;2023-02-18T17:37:58;11.93;;;8.55;;
37973;SDS011;23796;51.458;7.000;2023-02-18T17:40:27;11.15;;;7.72;;
37973;SDS011;23796;51.458;7.000;2023-02-18T17:42:55;9.40;;;8.07;;
37973;SDS011;23796;51.458;7.000;2023-02-18T17:45:27;11.35;;;7.65;;
37973;SDS011;23796;51.458;7.000;2023-02-18T17:47:56;10.80;;;7.20;;
37973;SDS011;23796;51.458;7.000;2023-02-18T17:50:26;8.88;;;7.22;;
37973;SDS011;23796;51.458;7.000;2023-02-18T17:52:53;10.55;;;7.78;;
37973;SDS011;23796;51.458;7.000;2023-02-18T18:01:01;11.93;;;8.98;;
37973;SDS011;23796;51.458;7.000;2023-02-18T18:38:23;11.57;;;10.18;;
37973;SDS011;23796;51.458;7.000;2023-02-18T18:44:09;11.95;;;10.75;;
37973;SDS011;23796;51.458;7.000;2023-02-18T18:47:06;12.03;;;10.93;;
37973;SDS011;23796;51.458;7.000;2023-02-18T18:49:48;12.05;;;10.80;;